Time;durP1;ratioP1;P1;durP2;ratioP2;P2;SDS_P1;SDS_P2;PMS_P1;PMS_P2;Temp;Humidity;BMP_temperature;BMP_pressure;BME280_temperature;BME280_humidity;BME280_pressure;Samples;Min_cycle;Max_cycle;Signal;HPM_P1;HPM_P2
2022/03/31 00:00:20;;;;;;;;;;;;;;;8.39;100.00;96518.11;1595935;89;24798;-84
2022/03/31 00:02:48;;;;;;;;;;;;;;;8.36;100.00;96513.64;1610724;86;20204;-85
2022/03/31 00:05:14;;;;;;;;;;;;;;;8.37;100.00;96519.20;1599702;86;25983;-85
2022/03/31 00:07:54;;;;;;;;;;;;;;;8.37;100.00;96517.41;1625370;86;25208;-87
2022/03/31 00:10:27;;;;;;;;;;;;;;;8.41;100.00;96515.34;1624127;86;20316;-86
2022/03/31 00:12:54;;;;;;;;;;;;;;;8.42;100.00;96508.34;1627337;88;24992;-86
2022/03/31 00:15:20;;;;;;;;;;;;;;;8.34;100.00;96509.89;1628566;86;21998;-86
2022/03/31 00:17:46;;;;;;;;;;;;;;;8.35;100.00;96501.56;1622201;86;26131;-86
2022/03/31 00:23:15;;;;;;;;;;;;;;;8.37;100.00;96510.08;1628997;87;20274;-86
2022/03/31 00:25:47;;;;;;;;;;;;;;;8.34;100.00;96509.06;1605808;88;20751;-87
2022/03/31 00:28:16;;;;;;;;;;;;;;;8.35;100.00;96506.78;1622156;85;22768;-86
2022/03/31 00:30:48;;;;;;;;;;;;;;;8.34;100.00;96507.28;1636977;86;26593;-85
2022/03/31 00:33:15;;;;;;;;;;;;;;;8.32;100.00;96509.20;1634407;86;24431;-85
2022/03/31 00:35:50;;;;;;;;;;;;;;;8.28;100.00;96512.20;1590625;88;20170;-85
2022/03/31 00:38:18;;;;;;;;;;;;;;;8.28;100.00;96514.80;1614411;87;24818;-85
2022/03/31 00:40:54;;;;;;;;;;;;;;;8.32;100.00;96514.41;1611575;87;22093;-84
2022/03/31 00:43:20;;;;;;;;;;;;;;;8.29;100.00;96508.13;1612913;88;26191;-84
2022/03/31 00:45:51;;;;;;;;;;;;;;;8.22;100.00;96516.19;1620024;87;24387;-84
2022/03/31 00:48:19;;;;;;;;;;;;;;;8.18;100.00;96511.39;1609108;88;20325;-84
2022/03/31 00:50:47;;;;;;;;;;;;;;;8.16;100.00;96518.52;1613582;88;24737;-84
2022/03/31 00:53:14;;;;;;;;;;;;;;;8.12;100.00;96508.86;1607476;87;22208;-84
2022/03/31 00:55:40;;;;;;;;;;;;;;;8.01;100.00;96503.80;1605482;86;26027;-85
2022/03/31 00:58:06;;;;;;;;;;;;;;;7.87;100.00;96510.23;1598165;89;24438;-85
2022/03/31 01:00:32;;;;;;;;;;;;;;;7.85;100.00;96508.27;1598419;89;20297;-85
2022/03/31 01:02:58;;;;;;;;;;;;;;;7.93;100.00;96507.09;1576340;88;24742;-85
2022/03/31 01:05:31;;;;;;;;;;;;;;;7.94;100.00;96504.00;1568915;90;22115;-85
2022/03/31 01:07:57;;;;;;;;;;;;;;;7.95;100.00;96503.88;1566032;90;26064;-85
2022/03/31 01:10:23;;;;;;;;;;;;;;;7.95;100.00;96502.57;1572690;89;24440;-84
2022/03/31 01:12:50;;;;;;;;;;;;;;;7.90;100.00;96502.17;1585733;88;20421;-86
2022/03/31 01:15:18;;;;;;;;;;;;;;;7.85;100.00;96503.54;1600180;87;24770;-85
2022/03/31 01:17:45;;;;;;;;;;;;;;;7.83;100.00;96501.06;1604142;87;21982;-85
2022/03/31 01:20:14;;;;;;;;;;;;;;;7.82;100.00;96503.80;1601255;88;26026;-86
2022/03/31 01:22:42;;;;;;;;;;;;;;;7.81;100.00;96505.58;1612321;88;24536;-84
2022/03/31 01:25:18;;;;;;;;;;;;;;;7.80;100.00;96509.13;1609897;88;20523;-84
2022/03/31 01:27:44;;;;;;;;;;;;;;;7.80;100.00;96508.34;1616851;86;24826;-84
2022/03/31 01:30:13;;;;;;;;;;;;;;;7.82;100.00;96511.61;1571746;88;21960;-84
2022/03/31 01:32:40;;;;;;;;;;;;;;;7.86;100.00;96507.28;1584685;88;26607;-84
2022/03/31 01:35:07;;;;;;;;;;;;;;;7.88;100.00;96502.77;1599003;87;24412;-83
2022/03/31 01:37:33;;;;;;;;;;;;;;;7.87;100.00;96508.11;1582343;88;20220;-83
2022/03/31 01:39:59;;;;;;;;;;;;;;;7.82;100.00;96509.83;1597469;88;24778;-83
2022/03/31 01:42:27;;;;;;;;;;;;;;;7.85;100.00;96511.35;1609640;88;22047;-83
2022/03/31 01:44:53;;;;;;;;;;;;;;;7.86;100.00;96516.40;1607261;87;26124;-84
2022/03/31 01:47:25;;;;;;;;;;;;;;;7.88;100.00;96523.61;1585918;88;24540;-83
2022/03/31 01:49:51;;;;;;;;;;;;;;;7.84;100.00;96516.21;1587113;89;20306;-84
2022/03/31 01:52:18;;;;;;;;;;;;;;;7.84;100.00;96517.03;1585825;89;20375;-84
2022/03/31 01:54:44;;;;;;;;;;;;;;;7.83;100.00;96514.56;1588506;89;22017;-84
2022/03/31 01:57:12;;;;;;;;;;;;;;;7.73;100.00;96511.96;1584319;89;26127;-84
2022/03/31 01:59:46;;;;;;;;;;;;;;;7.66;100.00;96510.85;1585686;89;23955;-85
2022/03/31 02:02:14;;;;;;;;;;;;;;;7.58;100.00;96506.82;1582188;88;20505;-85
2022/03/31 02:04:41;;;;;;;;;;;;;;;7.46;100.00;96509.20;1598744;89;24977;-85
2022/03/31 02:07:08;;;;;;;;;;;;;;;7.34;100.00;96511.09;1590838;90;21984;-85
2022/03/31 02:09:35;;;;;;;;;;;;;;;7.17;100.00;96508.31;1587282;90;25577;-85
2022/03/31 02:12:01;;;;;;;;;;;;;;;7.06;100.00;96503.56;1587842;89;24496;-85
2022/03/31 02:14:28;;;;;;;;;;;;;;;7.09;100.00;96505.09;1599172;89;20209;-85
2022/03/31 02:16:58;;;;;;;;;;;;;;;7.11;100.00;96505.76;1598983;88;24770;-85
2022/03/31 02:19:25;;;;;;;;;;;;;;;7.15;100.00;96505.36;1602185;87;22170;-84
2022/03/31 02:21:52;;;;;;;;;;;;;;;7.19;100.00;96510.31;1598975;89;26107;-84
2022/03/31 02:24:18;;;;;;;;;;;;;;;7.15;100.00;96504.05;1599800;89;24526;-84
2022/03/31 02:26:44;;;;;;;;;;;;;;;7.09;100.00;96502.48;1599198;89;20275;-85
2022/03/31 02:29:10;;;;;;;;;;;;;;;7.07;100.00;96510.89;1598869;89;24735;-85
2022/03/31 02:31:37;;;;;;;;;;;;;;;7.09;100.00;96515.49;1600624;89;21328;-85
2022/03/31 02:34:03;;;;;;;;;;;;;;;7.10;100.00;96513.21;1599037;89;25971;-84
2022/03/31 02:36:30;;;;;;;;;;;;;;;7.06;100.00;96517.87;1598125;87;24288;-84
2022/03/31 02:38:57;;;;;;;;;;;;;;;6.91;100.00;96515.77;1599563;89;20224;-85
2022/03/31 02:41:22;;;;;;;;;;;;;;;6.72;100.00;96524.30;1583676;90;24922;-84
2022/03/31 02:43:53;;;;;;;;;;;;;;;6.55;100.00;96526.19;1599994;89;20921;-85
2022/03/31 02:46:22;;;;;;;;;;;;;;;6.46;100.00;96519.18;1579461;90;26682;-84
2022/03/31 02:48:48;;;;;;;;;;;;;;;6.37;100.00;96516.06;1598830;89;24531;-84
2022/03/31 02:51:14;;;;;;;;;;;;;;;6.22;100.00;96511.64;1594027;89;20297;-85
2022/03/31 02:56:30;;;;;;;;;;;;;;;5.97;100.00;96527.14;1579929;90;22101;-86
2022/03/31 02:58:57;;;;;;;;;;;;;;;6.00;100.00;96537.27;1599513;89;26093;-86
2022/03/31 03:01:23;;;;;;;;;;;;;;;5.91;100.00;96531.53;1599145;89;24487;-86
2022/03/31 03:03:56;;;;;;;;;;;;;;;5.86;100.00;96540.97;1598407;86;20225;-86
2022/03/31 03:06:24;;;;;;;;;;;;;;;5.83;100.00;96544.30;1590516;88;24432;-86
2022/03/31 03:08:54;;;;;;;;;;;;;;;5.81;100.00;96539.69;1599330;89;21993;-86
2022/03/31 03:11:21;;;;;;;;;;;;;;;5.82;100.00;96536.98;1598033;89;26085;-86
2022/03/31 03:13:47;;;;;;;;;;;;;;;5.80;100.00;96536.73;1600040;88;24597;-85
2022/03/31 03:16:13;;;;;;;;;;;;;;;5.81;100.00;96540.98;1599701;89;20261;-85
2022/03/31 03:18:39;;;;;;;;;;;;;;;5.84;100.00;96536.83;1600273;89;24682;-85
2022/03/31 03:21:07;;;;;;;;;;;;;;;5.87;100.00;96527.08;1584883;90;22053;-85
2022/03/31 03:23:33;;;;;;;;;;;;;;;5.80;100.00;96530.25;1598011;89;26057;-85
2022/03/31 03:26:01;;;;;;;;;;;;;;;5.73;100.00;96523.42;1599093;89;24459;-85
2022/03/31 03:28:27;;;;;;;;;;;;;;;5.65;100.00;96532.32;1591223;89;20261;-85
2022/03/31 03:30:53;;;;;;;;;;;;;;;5.56;100.00;96529.65;1598657;88;24758;-85
2022/03/31 03:33:19;;;;;;;;;;;;;;;5.56;100.00;96525.76;1579033;89;20825;-85
2022/03/31 03:35:45;;;;;;;;;;;;;;;5.60;100.00;96529.74;1598676;89;21151;-86
2022/03/31 03:38:12;;;;;;;;;;;;;;;5.62;100.00;96539.03;1597805;89;24412;-85
2022/03/31 03:40:38;;;;;;;;;;;;;;;5.64;100.00;96540.22;1599753;89;20280;-84
2022/03/31 03:43:04;;;;;;;;;;;;;;;5.60;100.00;96541.42;1589342;90;24737;-83
2022/03/31 03:45:32;;;;;;;;;;;;;;;5.52;100.00;96552.40;1589465;89;22216;-83
2022/03/31 03:47:59;;;;;;;;;;;;;;;5.40;100.00;96559.38;1599394;88;26660;-84
2022/03/31 03:50:25;;;;;;;;;;;;;;;5.28;100.00;96552.59;1590410;90;24610;-84
2022/03/31 03:52:51;;;;;;;;;;;;;;;5.27;100.00;96553.53;1598987;89;20312;-83
2022/03/31 03:55:19;;;;;;;;;;;;;;;5.26;100.00;96547.98;1599436;89;25447;-84
2022/03/31 03:57:45;;;;;;;;;;;;;;;5.15;100.00;96545.41;1589332;90;21978;-84
2022/03/31 04:00:11;;;;;;;;;;;;;;;5.04;100.00;96553.20;1597789;89;21038;-84
2022/03/31 04:02:38;;;;;;;;;;;;;;;4.92;100.00;96550.25;1611561;86;25249;-85
2022/03/31 04:05:04;;;;;;;;;;;;;;;4.82;100.00;96547.55;1604372;87;20223;-83
2022/03/31 04:07:30;;;;;;;;;;;;;;;4.77;100.00;96545.79;1621169;86;24811;-84
2022/03/31 04:09:56;;;;;;;;;;;;;;;4.70;100.00;96538.59;1611258;88;21985;-83
2022/03/31 04:12:22;;;;;;;;;;;;;;;4.63;100.00;96544.73;1606221;88;25998;-83
2022/03/31 04:14:49;;;;;;;;;;;;;;;4.55;100.00;96544.02;1623848;86;24530;-84
2022/03/31 04:17:16;;;;;;;;;;;;;;;4.49;100.00;96550.95;1624001;87;20207;-83
2022/03/31 04:19:44;;;;;;;;;;;;;;;4.43;100.00;96556.59;1625771;86;24776;-83
2022/03/31 04:22:11;;;;;;;;;;;;;;;4.40;100.00;96554.23;1636459;85;22025;-84
2022/03/31 04:24:37;;;;;;;;;;;;;;;4.38;100.00;96557.41;1653821;86;25993;-84
2022/03/31 04:27:04;;;;;;;;;;;;;;;4.33;100.00;96554.80;1636683;86;24619;-84
2022/03/31 04:29:30;;;;;;;;;;;;;;;4.30;100.00;96546.81;1641481;86;20209;-84
2022/03/31 04:31:56;;;;;;;;;;;;;;;4.34;100.00;96552.11;1628784;87;24746;-84
2022/03/31 04:34:22;;;;;;;;;;;;;;;4.36;100.00;96552.83;1622179;88;21843;-84
2022/03/31 04:36:48;;;;;;;;;;;;;;;4.36;100.00;96557.18;1626724;86;26223;-84
2022/03/31 04:39:17;;;;;;;;;;;;;;;4.30;100.00;96549.41;1608994;87;25436;-84
2022/03/31 04:41:44;;;;;;;;;;;;;;;4.25;100.00;96542.45;1628688;85;20225;-84
2022/03/31 04:44:10;;;;;;;;;;;;;;;4.25;100.00;96548.92;1627173;87;24744;-84
2022/03/31 04:46:36;;;;;;;;;;;;;;;4.34;100.00;96548.23;1625053;86;21943;-84
2022/03/31 04:49:02;;;;;;;;;;;;;;;4.41;100.00;96550.72;1609985;86;26084;-84
2022/03/31 04:51:28;;;;;;;;;;;;;;;4.34;100.00;96548.69;1625263;86;24488;-84
2022/03/31 04:53:54;;;;;;;;;;;;;;;4.25;100.00;96552.81;1609052;87;20255;-84
2022/03/31 04:56:20;;;;;;;;;;;;;;;4.22;100.00;96555.61;1623307;86;20206;-84
2022/03/31 04:58:48;;;;;;;;;;;;;;;4.23;100.00;96560.31;1617969;88;22795;-84
2022/03/31 05:01:14;;;;;;;;;;;;;;;4.27;100.00;96567.73;1622579;86;26008;-83
2022/03/31 05:03:42;;;;;;;;;;;;;;;4.26;100.00;96567.38;1625667;85;20229;-84
2022/03/31 05:06:08;;;;;;;;;;;;;;;4.28;100.00;96576.33;1632344;86;20279;-84
2022/03/31 05:08:34;;;;;;;;;;;;;;;4.29;100.00;96575.40;1622429;86;24751;-84
2022/03/31 05:11:00;;;;;;;;;;;;;;;4.30;100.00;96571.41;1603547;88;21934;-84
2022/03/31 05:13:26;;;;;;;;;;;;;;;4.34;100.00;96575.41;1616542;88;26032;-82
2022/03/31 05:15:53;;;;;;;;;;;;;;;4.43;100.00;96581.19;1622043;88;24566;-83
2022/03/31 05:18:19;;;;;;;;;;;;;;;4.44;100.00;96577.66;1627428;86;20255;-84
2022/03/31 05:20:45;;;;;;;;;;;;;;;4.45;100.00;96579.79;1625831;86;24933;-84
2022/03/31 05:23:12;;;;;;;;;;;;;;;4.47;100.00;96583.09;1624136;86;22046;-84
2022/03/31 05:25:39;;;;;;;;;;;;;;;4.37;100.00;96580.34;1621781;86;26052;-83
2022/03/31 05:28:06;;;;;;;;;;;;;;;4.26;100.00;96573.02;1620579;88;24742;-83
2022/03/31 05:30:32;;;;;;;;;;;;;;;4.18;100.00;96572.31;1610932;86;20345;-84
2022/03/31 05:32:59;;;;;;;;;;;;;;;4.15;100.00;96573.35;1620511;86;25153;-84
2022/03/31 05:35:27;;;;;;;;;;;;;;;4.13;100.00;96577.01;1627855;88;21910;-84
2022/03/31 05:37:53;;;;;;;;;;;;;;;4.12;100.00;96573.59;1620378;86;26012;-83
2022/03/31 05:40:19;;;;;;;;;;;;;;;4.08;100.00;96576.52;1627379;87;24484;-83
2022/03/31 05:42:45;;;;;;;;;;;;;;;4.06;100.00;96577.09;1618806;87;20212;-83
2022/03/31 05:45:12;;;;;;;;;;;;;;;4.03;100.00;96576.87;1624086;86;20337;-83
2022/03/31 05:47:39;;;;;;;;;;;;;;;4.00;100.00;96575.78;1611932;88;22087;-84
2022/03/31 05:50:09;;;;;;;;;;;;;;;4.01;100.00;96576.61;1605374;87;26622;-84
2022/03/31 05:52:39;;;;;;;;;;;;;;;3.98;100.00;96580.23;1614493;86;24535;-84
2022/03/31 05:55:08;;;;;;;;;;;;;;;3.96;100.00;96577.41;1646199;86;20197;-84
2022/03/31 05:57:37;;;;;;;;;;;;;;;4.00;100.00;96580.95;1608827;87;24844;-84
2022/03/31 06:00:04;;;;;;;;;;;;;;;3.96;100.00;96579.54;1603527;88;22207;-84
2022/03/31 06:02:30;;;;;;;;;;;;;;;3.87;100.00;96578.09;1608123;87;25996;-84
2022/03/31 06:04:56;;;;;;;;;;;;;;;3.81;100.00;96576.78;1633925;86;20290;-84
2022/03/31 06:07:22;;;;;;;;;;;;;;;3.79;100.00;96580.77;1624678;86;20219;-83
2022/03/31 06:09:48;;;;;;;;;;;;;;;3.78;100.00;96576.98;1624884;88;25359;-84
2022/03/31 06:12:14;;;;;;;;;;;;;;;3.81;100.00;96575.48;1623782;86;22067;-84
2022/03/31 06:14:41;;;;;;;;;;;;;;;3.85;100.00;96576.08;1630006;86;20930;-83
2022/03/31 06:17:08;;;;;;;;;;;;;;;3.83;100.00;96577.94;1598970;86;24514;-84
2022/03/31 06:19:35;;;;;;;;;;;;;;;3.79;100.00;96576.88;1621896;87;20493;-84
2022/03/31 06:22:01;;;;;;;;;;;;;;;3.74;100.00;96581.56;1626153;88;24976;-84
2022/03/31 06:24:27;;;;;;;;;;;;;;;3.70;100.00;96584.02;1610635;86;22242;-83
2022/03/31 06:26:55;;;;;;;;;;;;;;;3.69;100.00;96591.42;1606533;87;21049;-83
2022/03/31 06:29:21;;;;;;;;;;;;;;;3.67;100.00;96591.98;1595977;89;24602;-84
2022/03/31 06:31:47;;;;;;;;;;;;;;;3.66;100.00;96594.20;1605039;89;20319;-83
2022/03/31 06:34:13;;;;;;;;;;;;;;;3.62;100.00;96603.59;1606352;87;20283;-84
2022/03/31 06:36:39;;;;;;;;;;;;;;;3.58;100.00;96599.12;1632339;86;20909;-83
2022/03/31 06:39:05;;;;;;;;;;;;;;;3.56;100.00;96597.09;1623021;86;21029;-83
2022/03/31 06:41:31;;;;;;;;;;;;;;;3.54;100.00;96598.16;1625014;87;20314;-84
2022/03/31 06:43:57;;;;;;;;;;;;;;;3.55;100.00;96597.20;1619308;88;20266;-84
2022/03/31 06:46:23;;;;;;;;;;;;;;;3.54;100.00;96605.45;1622182;86;24767;-84
2022/03/31 06:48:49;;;;;;;;;;;;;;;3.56;100.00;96604.86;1573551;90;21933;-84
2022/03/31 06:51:21;;;;;;;;;;;;;;;3.52;100.00;96603.43;1595601;89;26006;-83
2022/03/31 06:53:47;;;;;;;;;;;;;;;3.53;100.00;96605.55;1628397;87;24705;-84
2022/03/31 06:56:14;;;;;;;;;;;;;;;3.55;100.00;96603.20;1595290;88;20230;-83
2022/03/31 06:58:41;;;;;;;;;;;;;;;3.56;100.00;96606.15;1595694;88;24845;-83
2022/03/31 07:01:12;;;;;;;;;;;;;;;3.56;100.00;96613.91;1626554;87;22858;-84
2022/03/31 07:03:38;;;;;;;;;;;;;;;3.55;100.00;96612.25;1624570;86;26171;-84
2022/03/31 07:06:06;;;;;;;;;;;;;;;3.53;100.00;96605.09;1619789;86;20308;-83
2022/03/31 07:08:34;;;;;;;;;;;;;;;3.55;100.00;96608.38;1632751;86;20302;-83
2022/03/31 07:11:07;;;;;;;;;;;;;;;3.51;100.00;96597.06;1627650;87;25477;-84
2022/03/31 07:13:33;;;;;;;;;;;;;;;3.50;100.00;96595.41;1635157;86;22910;-83
2022/03/31 07:15:59;;;;;;;;;;;;;;;3.51;100.00;96601.77;1631848;87;21039;-82
2022/03/31 07:18:26;;;;;;;;;;;;;;;3.54;100.00;96599.45;1627060;86;24495;-83
2022/03/31 07:20:52;;;;;;;;;;;;;;;3.56;100.00;96600.15;1627327;86;20167;-84
2022/03/31 07:23:18;;;;;;;;;;;;;;;3.59;100.00;96596.07;1628521;87;20269;-84
2022/03/31 07:25:45;;;;;;;;;;;;;;;3.61;100.00;96591.12;1628307;87;22009;-83
2022/03/31 07:28:11;;;;;;;;;;;;;;;3.63;100.00;96592.32;1623790;86;21134;-83
2022/03/31 07:30:37;;;;;;;;;;;;;;;3.61;100.00;96597.59;1627070;86;20257;-83
2022/03/31 07:33:04;;;;;;;;;;;;;;;3.61;100.00;96597.59;1626634;86;20153;-84
2022/03/31 07:35:31;;;;;;;;;;;;;;;3.63;100.00;96597.49;1627577;86;24968;-84
2022/03/31 07:37:58;;;;;;;;;;;;;;;3.64;100.00;96601.73;1607754;87;21944;-84
2022/03/31 07:40:25;;;;;;;;;;;;;;;3.64;100.00;96601.27;1632806;86;25972;-83
2022/03/31 07:42:52;;;;;;;;;;;;;;;3.68;100.00;96601.41;1628375;86;24524;-83
2022/03/31 07:45:19;;;;;;;;;;;;;;;3.67;100.00;96603.63;1622239;86;20574;-83
2022/03/31 07:47:45;;;;;;;;;;;;;;;3.68;100.00;96604.45;1626128;86;24817;-83
2022/03/31 07:50:12;;;;;;;;;;;;;;;3.63;100.00;96603.95;1619367;88;22044;-83
2022/03/31 07:52:39;;;;;;;;;;;;;;;3.63;100.00;96603.49;1623335;86;26112;-83
2022/03/31 07:55:06;;;;;;;;;;;;;;;3.69;100.00;96602.23;1629030;86;24508;-83
2022/03/31 07:57:36;;;;;;;;;;;;;;;3.72;100.00;96604.58;1620754;86;20245;-83
2022/03/31 08:00:06;;;;;;;;;;;;;;;3.73;100.00;96607.06;1595110;88;24859;-83
2022/03/31 08:02:42;;;;;;;;;;;;;;;3.73;100.00;96601.89;1612663;86;21787;-83
2022/03/31 08:05:11;;;;;;;;;;;;;;;3.75;100.00;96610.38;1616927;87;26790;-83
2022/03/31 08:07:39;;;;;;;;;;;;;;;3.77;100.00;96612.84;1615663;87;24494;-83
2022/03/31 08:10:05;;;;;;;;;;;;;;;3.77;100.00;96620.13;1620116;87;20277;-83
2022/03/31 08:12:33;;;;;;;;;;;;;;;3.77;100.00;96614.96;1636271;86;24903;-83
2022/03/31 08:15:00;;;;;;;;;;;;;;;3.77;100.00;96614.96;1621123;86;21993;-84
2022/03/31 08:17:27;;;;;;;;;;;;;;;3.75;100.00;96609.55;1634748;87;26023;-83
2022/03/31 08:19:53;;;;;;;;;;;;;;;3.73;100.00;96609.66;1633686;87;24313;-83
2022/03/31 08:22:19;;;;;;;;;;;;;;;3.70;100.00;96606.02;1608382;86;20307;-85
2022/03/31 08:24:45;;;;;;;;;;;;;;;3.70;100.00;96608.59;1617913;86;25371;-85
2022/03/31 08:27:12;;;;;;;;;;;;;;;3.72;100.00;96610.59;1635229;87;22721;-83
2022/03/31 08:29:39;;;;;;;;;;;;;;;3.76;100.00;96611.21;1632203;86;26641;-83
2022/03/31 08:32:07;;;;;;;;;;;;;;;3.77;100.00;96612.38;1632162;86;24452;-83
2022/03/31 08:34:34;;;;;;;;;;;;;;;3.79;100.00;96614.39;1632109;87;20250;-83
2022/03/31 08:37:00;;;;;;;;;;;;;;;3.83;100.00;96605.94;1604354;89;25473;-83
2022/03/31 08:39:26;;;;;;;;;;;;;;;3.87;100.00;96612.56;1616519;86;22080;-83
2022/03/31 08:41:52;;;;;;;;;;;;;;;3.88;100.00;96608.19;1638514;85;26097;-83
2022/03/31 08:44:22;;;;;;;;;;;;;;;3.86;100.00;96613.48;1609395;86;24458;-82
2022/03/31 08:46:49;;;;;;;;;;;;;;;3.86;100.00;96612.20;1621633;86;20351;-83
2022/03/31 08:49:15;;;;;;;;;;;;;;;3.89;100.00;96603.38;1636875;86;25014;-83
2022/03/31 08:51:45;;;;;;;;;;;;;;;3.88;100.00;96609.02;1619678;86;22055;-83
2022/03/31 08:54:13;;;;;;;;;;;;;;;3.87;100.00;96615.15;1584205;87;26015;-83
2022/03/31 08:56:39;;;;;;;;;;;;;;;3.91;100.00;96619.63;1634141;84;24463;-83
2022/03/31 08:59:07;;;;;;;;;;;;;;;3.92;100.00;96617.40;1604170;86;20283;-83
2022/03/31 09:01:33;;;;;;;;;;;;;;;3.92;100.00;96617.40;1602973;87;25563;-83
2022/03/31 09:04:00;;;;;;;;;;;;;;;3.90;100.00;96616.20;1602442;89;22032;-82
2022/03/31 09:06:30;;;;;;;;;;;;;;;3.94;100.00;96619.39;1590447;88;26132;-83
2022/03/31 09:08:59;;;;;;;;;;;;;;;3.94;100.00;96609.03;1593207;89;20198;-83
2022/03/31 09:11:33;;;;;;;;;;;;;;;3.93;100.00;96607.41;1585450;90;20239;-83
2022/03/31 09:14:00;;;;;;;;;;;;;;;3.92;100.00;96614.34;1625403;87;24826;-83
2022/03/31 09:16:30;;;;;;;;;;;;;;;3.93;100.00;96608.70;1593454;90;22009;-83
2022/03/31 09:19:03;;;;;;;;;;;;;;;3.96;100.00;96606.70;1588789;89;26054;-83
2022/03/31 09:21:31;;;;;;;;;;;;;;;4.03;100.00;96610.52;1588806;90;24561;-84
2022/03/31 09:23:57;;;;;;;;;;;;;;;4.00;100.00;96596.95;1596386;89;20300;-83
2022/03/31 09:26:27;;;;;;;;;;;;;;;3.97;100.00;96598.48;1597398;88;24756;-83
2022/03/31 09:28:56;;;;;;;;;;;;;;;3.93;100.00;96591.39;1617988;87;20190;-83
2022/03/31 09:31:28;;;;;;;;;;;;;;;3.91;100.00;96596.34;1599307;89;26165;-83
2022/03/31 09:33:58;;;;;;;;;;;;;;;3.91;100.00;96600.22;1583279;89;24523;-83
2022/03/31 09:36:24;;;;;;;;;;;;;;;3.93;100.00;96604.83;1625340;88;20175;-83
2022/03/31 09:38:55;;;;;;;;;;;;;;;3.93;100.00;96601.73;1629603;86;24825;-83
2022/03/31 09:41:23;;;;;;;;;;;;;;;3.92;100.00;96600.58;1628146;87;22176;-83
2022/03/31 09:43:50;;;;;;;;;;;;;;;3.90;100.00;96602.44;1624994;87;26052;-84
2022/03/31 09:46:23;;;;;;;;;;;;;;;3.90;100.00;96602.44;1638133;86;20183;-83
2022/03/31 09:48:55;;;;;;;;;;;;;;;3.91;100.00;96598.92;1598418;88;20234;-83
2022/03/31 09:51:19;;;;;;;;;;;;;;;3.91;100.00;96600.22;1599203;89;24881;-83
2022/03/31 09:53:48;;;;;;;;;;;;;;;3.90;100.00;96603.73;1588504;90;22839;-83
2022/03/31 09:56:16;;;;;;;;;;;;;;;3.90;100.00;96599.39;1599884;89;26155;-84
2022/03/31 09:58:43;;;;;;;;;;;;;;;3.91;100.00;96598.92;1610896;86;24524;-84
2022/03/31 10:01:10;;;;;;;;;;;;;;;3.91;100.00;96593.75;1591827;89;20192;-84
2022/03/31 10:03:41;;;;;;;;;;;;;;;3.93;100.00;96595.77;1579107;89;25472;-83
2022/03/31 10:06:08;;;;;;;;;;;;;;;3.92;100.00;96591.52;1591726;88;22083;-83
2022/03/31 10:08:39;;;;;;;;;;;;;;;3.92;100.00;96594.11;1607108;87;26911;-83
2022/03/31 10:11:03;;;;;;;;;;;;;;;3.94;100.00;96586.58;1602980;87;24508;-83
2022/03/31 10:13:31;;;;;;;;;;;;;;;3.95;100.00;96592.58;1607617;87;20218;-84
2022/03/31 10:15:58;;;;;;;;;;;;;;;3.95;100.00;96591.28;1608754;87;24770;-84
2022/03/31 10:18:26;;;;;;;;;;;;;;;3.94;100.00;96587.87;1612446;87;22955;-83
2022/03/31 10:20:54;;;;;;;;;;;;;;;3.93;100.00;96593.18;1611062;87;25968;-84
2022/03/31 10:26:05;;;;;;;;;;;;;;;3.88;100.00;96590.07;1609145;87;20253;-83
2022/03/31 10:28:31;;;;;;;;;;;;;;;3.84;100.00;96586.89;1607427;87;24975;-83
2022/03/31 10:30:58;;;;;;;;;;;;;;;3.83;100.00;96577.94;1629763;87;20835;-84
2022/03/31 10:33:42;;;;;;;;;;;;;;;3.83;100.00;96580.53;1610576;87;26133;-82
2022/03/31 10:36:12;;;;;;;;;;;;;;;3.86;100.00;96577.73;1605480;88;24470;-82
2022/03/31 10:38:39;;;;;;;;;;;;;;;3.87;100.00;96579.39;1583201;88;20266;-83
2022/03/31 10:41:13;;;;;;;;;;;;;;;3.85;100.00;96580.78;1567014;90;25710;-83
2022/03/31 10:43:40;;;;;;;;;;;;;;;3.89;100.00;96580.08;1584243;88;22090;-82
2022/03/31 10:46:14;;;;;;;;;;;;;;;3.92;100.00;96578.58;1588264;88;25906;-83
2022/03/31 10:48:41;;;;;;;;;;;;;;;3.89;100.00;96578.33;1577674;89;24517;-83
2022/03/31 10:51:14;;;;;;;;;;;;;;;3.89;100.00;96573.62;1607445;87;20320;-83
2022/03/31 10:53:44;;;;;;;;;;;;;;;3.89;100.00;96581.38;1613380;87;24757;-83
2022/03/31 10:56:26;;;;;;;;;;;;;;;3.88;100.00;96579.72;1609171;87;22014;-83
2022/03/31 10:58:59;;;;;;;;;;;;;;;3.86;100.00;96585.49;1615882;87;26091;-85
2022/03/31 11:01:34;;;;;;;;;;;;;;;3.82;100.00;96584.88;1613465;87;24422;-85
2022/03/31 11:04:02;;;;;;;;;;;;;;;3.77;100.00;96583.91;1598056;87;20234;-84
2022/03/31 11:06:29;;;;;;;;;;;;;;;3.74;100.00;96580.27;1609590;85;24935;-84
2022/03/31 11:08:56;;;;;;;;;;;;;;;3.78;100.00;96588.16;1593311;88;22019;-84
2022/03/31 11:11:28;;;;;;;;;;;;;;;3.78;100.00;96584.28;1616331;86;26048;-85
2022/03/31 11:13:55;;;;;;;;;;;;;;;3.77;100.00;96583.09;1597942;86;24696;-83
2022/03/31 11:16:22;;;;;;;;;;;;;;;3.76;100.00;96578.37;1599199;88;20515;-83
2022/03/31 11:18:55;;;;;;;;;;;;;;;3.74;100.00;96577.69;1598517;89;24831;-84
2022/03/31 11:21:22;;;;;;;;;;;;;;;3.73;100.00;96566.14;1607597;87;22014;-83
2022/03/31 11:23:49;;;;;;;;;;;;;;;3.72;100.00;96568.37;1593122;87;26043;-84
2022/03/31 11:26:16;;;;;;;;;;;;;;;3.72;100.00;96570.95;1602255;86;24466;-83
2022/03/31 11:28:45;;;;;;;;;;;;;;;3.72;100.00;96561.90;1603631;86;20174;-84
2022/03/31 11:31:11;;;;;;;;;;;;;;;3.70;100.00;96562.03;1601896;85;24809;-84
2022/03/31 11:33:44;;;;;;;;;;;;;;;3.71;100.00;96563.66;1625319;86;22922;-84
2022/03/31 11:36:10;;;;;;;;;;;;;;;3.68;100.00;96560.48;1609811;86;26068;-84
2022/03/31 11:38:36;;;;;;;;;;;;;;;3.65;100.00;96558.95;1606220;86;24518;-84
2022/03/31 11:41:02;;;;;;;;;;;;;;;3.65;100.00;96561.55;1607177;86;20165;-84
2022/03/31 11:43:34;;;;;;;;;;;;;;;3.63;100.00;96553.52;1601938;87;24844;-84
2022/03/31 11:46:00;;;;;;;;;;;;;;;3.64;100.00;96552.59;1605717;85;22071;-84
2022/03/31 11:48:33;;;;;;;;;;;;;;;3.65;100.00;96551.66;1595980;87;26019;-84
2022/03/31 11:51:02;;;;;;;;;;;;;;;3.65;100.00;96548.61;1605253;86;25348;-84
2022/03/31 11:53:32;;;;;;;;;;;;;;;3.68;100.00;96544.50;1597574;88;20631;-84
2022/03/31 11:55:59;;;;;;;;;;;;;;;3.69;100.00;96543.56;1599495;86;24880;-85
2022/03/31 11:58:30;;;;;;;;;;;;;;;3.73;100.00;96535.94;1596346;87;22072;-85
2022/03/31 12:00:57;;;;;;;;;;;;;;;3.74;100.00;96545.34;1603922;86;26020;-86
2022/03/31 12:03:25;;;;;;;;;;;;;;;3.73;100.00;96541.11;1603726;87;24523;-86
2022/03/31 12:05:56;;;;;;;;;;;;;;;3.73;100.00;96538.52;1629049;86;20597;-84
2022/03/31 12:08:24;;;;;;;;;;;;;;;3.73;100.00;96539.81;1612673;86;24813;-84
2022/03/31 12:10:51;;;;;;;;;;;;;;;3.75;100.00;96534.53;1598644;86;22011;-86
2022/03/31 12:13:17;;;;;;;;;;;;;;;3.76;100.00;96530.52;1606141;86;25984;-85
2022/03/31 12:15:48;;;;;;;;;;;;;;;3.77;100.00;96532.64;1617521;86;20731;-85
2022/03/31 12:18:18;;;;;;;;;;;;;;;3.79;100.00;96530.78;1598509;87;20310;-85
2022/03/31 12:20:49;;;;;;;;;;;;;;;3.81;100.00;96526.33;1610591;86;26171;-85
2022/03/31 12:23:20;;;;;;;;;;;;;;;3.81;100.00;96522.91;1598390;88;23225;-85
2022/03/31 12:25:46;;;;;;;;;;;;;;;3.80;100.00;96522.09;1598897;88;26137;-84
2022/03/31 12:28:12;;;;;;;;;;;;;;;3.77;100.00;96517.13;1598298;86;24449;-84
2022/03/31 12:30:40;;;;;;;;;;;;;;;3.79;100.00;96517.37;1598201;88;20210;-84
2022/03/31 12:33:18;;;;;;;;;;;;;;;3.82;100.00;96512.92;1608679;86;24895;-85
2022/03/31 12:35:46;;;;;;;;;;;;;;;3.83;100.00;96510.67;1599287;86;21975;-85
2022/03/31 12:38:12;;;;;;;;;;;;;;;3.83;100.00;96508.08;1626515;87;26258;-84
2022/03/31 12:40:43;;;;;;;;;;;;;;;3.84;100.00;96501.98;1611850;87;20277;-84
2022/03/31 12:43:10;;;;;;;;;;;;;;;3.82;100.00;96503.88;1626295;87;20227;-85
2022/03/31 12:45:36;;;;;;;;;;;;;;;3.79;100.00;96495.39;1588248;88;25461;-85
2022/03/31 12:48:06;;;;;;;;;;;;;;;3.78;100.00;96496.32;1600181;89;22821;-85
2022/03/31 12:50:33;;;;;;;;;;;;;;;3.79;100.00;96494.09;1584009;89;26067;-85
2022/03/31 12:53:04;;;;;;;;;;;;;;;3.78;100.00;96493.73;1600316;89;24510;-84
2022/03/31 12:55:36;;;;;;;;;;;;;;;3.79;100.00;96494.56;1587150;89;20288;-84
2022/03/31 12:58:03;;;;;;;;;;;;;;;3.77;100.00;96490.78;1576406;88;24889;-84